Time;durP1;ratioP1;P1;durP2;ratioP2;P2;SDS_P1;SDS_P2;PMS_P1;PMS_P2;Temp;Humidity;BMP_temperature;BMP_pressure;BME280_temperature;BME280_humidity;BME280_pressure;Samples;Min_cycle;Max_cycle;Signal;HPM_P1;HPM_P2
2022/08/11 00:00:12;;;;;;;6.75;5.18;;;18.80;99.90;;;;;;5063059;28;20052;-57
2022/08/11 00:02:42;;;;;;;6.43;5.30;;;18.80;99.90;;;;;;5061807;28;20055;-57
2022/08/11 00:05:17;;;;;;;8.07;5.05;;;18.80;99.90;;;;;;5063046;28;20044;-58
2022/08/11 00:07:54;;;;;;;8.85;5.50;;;18.80;99.90;;;;;;5074509;28;20049;-57
2022/08/11 00:10:23;;;;;;;7.30;5.07;;;18.80;99.90;;;;;;5062288;28;20080;-57
2022/08/11 00:12:58;;;;;;;6.57;5.45;;;18.70;99.90;;;;;;5063056;28;20082;-57
2022/08/11 00:15:25;;;;;;;7.60;5.50;;;18.80;99.90;;;;;;5062750;28;20098;-57
2022/08/11 00:17:59;;;;;;;6.32;5.13;;;18.70;99.90;;;;;;5062295;28;20131;-57
2022/08/11 00:20:34;;;;;;;8.27;4.63;;;18.60;99.90;;;;;;5062645;28;20060;-57
2022/08/11 00:23:16;;;;;;;8.90;5.32;;;18.70;99.90;;;;;;5062777;28;20098;-57
2022/08/11 00:25:47;;;;;;;6.82;5.57;;;18.60;99.90;;;;;;5060993;28;20057;-57
2022/08/11 00:28:33;;;;;;;7.25;5.50;;;18.60;99.90;;;;;;5062591;28;20052;-57
2022/08/11 00:31:05;;;;;;;7.78;5.68;;;18.60;99.90;;;;;;5062667;28;20072;-56
2022/08/11 00:33:43;;;;;;;8.60;5.70;;;18.60;99.90;;;;;;5061850;28;20101;-57
2022/08/11 00:36:14;;;;;;;7.35;5.65;;;18.60;99.90;;;;;;5062639;28;20133;-57
2022/08/11 00:38:42;;;;;;;6.97;5.70;;;18.60;99.90;;;;;;5062845;28;20211;-57
2022/08/11 00:41:19;;;;;;;8.88;6.60;;;18.50;99.90;;;;;;5061770;28;20445;-57
2022/08/11 00:44:09;;;;;;;7.72;6.72;;;18.40;99.90;;;;;;5064062;28;20040;-57
2022/08/11 00:46:54;;;;;;;10.05;6.40;;;18.40;99.90;;;;;;5065066;28;20056;-57
2022/08/11 00:49:44;;;;;;;9.55;6.50;;;18.30;99.90;;;;;;5066052;28;20040;-57
2022/08/11 00:52:41;;;;;;;10.60;7.03;;;18.20;99.90;;;;;;5065189;28;20096;-57
2022/08/11 00:55:16;;;;;;;10.45;7.82;;;18.20;99.90;;;;;;5056229;28;20110;-57
2022/08/11 00:57:44;;;;;;;;;;;18.20;99.90;;;;;;5066140;28;20040;-57
2022/08/11 01:00:25;;;;;;;8.90;6.90;;;18.10;99.90;;;;;;5065586;28;19921;-57
2022/08/11 01:02:57;;;;;;;11.30;8.32;;;18.10;99.90;;;;;;5080795;28;20094;-56
2022/08/11 01:05:58;;;;;;;9.18;6.97;;;18.10;99.90;;;;;;5065614;28;20094;-57
2022/08/11 01:08:56;;;;;;;9.63;7.75;;;18.00;99.90;;;;;;5091200;22;20060;-56
2022/08/11 01:11:59;;;;;;;9.50;8.48;;;18.00;99.90;;;;;;5062289;28;20056;-53
2022/08/11 01:14:46;;;;;;;13.00;8.25;;;17.90;99.90;;;;;;5064834;28;20048;-52
2022/08/11 01:17:34;;;;;;;10.95;8.68;;;17.90;99.90;;;;;;5063698;28;20059;-55
2022/08/11 01:20:52;;;;;;;9.93;7.78;;;17.90;99.90;;;;;;5064525;28;20127;-53
2022/08/11 01:23:48;;;;;;;10.13;7.85;;;17.90;99.90;;;;;;5064986;28;20041;-54
2022/08/11 01:26:46;;;;;;;9.38;7.65;;;17.90;99.90;;;;;;5063615;28;20494;-54
2022/08/11 01:29:36;;;;;;;11.73;8.43;;;18.00;99.90;;;;;;5065182;28;20377;-53
2022/08/11 01:32:28;;;;;;;13.98;9.15;;;18.00;99.90;;;;;;5064644;28;20040;-53
2022/08/11 01:35:11;;;;;;;13.40;9.27;;;18.00;99.90;;;;;;5065035;28;20461;-53
2022/08/11 01:37:37;;;;;;;12.15;9.32;;;18.00;99.90;;;;;;5064233;28;20055;-54
2022/08/11 01:40:24;;;;;;;12.13;9.05;;;17.80;99.90;;;;;;5065051;28;20132;-53
2022/08/11 01:46:12;;;;;;;14.57;9.40;;;17.90;99.90;;;;;;5063873;28;20106;-54
2022/08/11 01:48:44;;;;;;;9.75;8.70;;;17.80;99.90;;;;;;5064472;28;20041;-57
2022/08/11 01:51:45;;;;;;;12.20;10.57;;;17.90;99.90;;;;;;5064520;28;20082;-52
2022/08/11 01:54:30;;;;;;;10.95;9.13;;;17.80;99.90;;;;;;5064805;28;20120;-54
2022/08/11 01:57:20;;;;;;;13.15;9.77;;;17.80;99.90;;;;;;5064789;28;20045;-52
2022/08/11 01:59:50;;;;;;;12.18;10.40;;;17.90;99.90;;;;;;5064476;28;20044;-54
2022/08/11 02:02:44;;;;;;;13.77;10.57;;;17.80;99.90;;;;;;5064215;28;20364;-54
2022/08/11 02:05:22;;;;;;;11.85;9.75;;;17.80;99.90;;;;;;5064152;28;20052;-54
2022/08/11 02:08:12;;;;;;;11.98;9.75;;;17.90;99.90;;;;;;5074720;28;20117;-53
2022/08/11 02:13:48;;;;;;;13.30;10.43;;;17.90;99.90;;;;;;5063952;28;20128;-54
2022/08/11 02:16:25;;;;;;;12.93;10.60;;;17.90;99.90;;;;;;5063630;28;20045;-53
2022/08/11 02:25:12;;;;;;;16.08;10.35;;;17.80;99.90;;;;;;5063873;28;20064;-54
2022/08/11 02:28:01;;;;;;;12.73;10.95;;;17.90;99.90;;;;;;5056130;28;20568;-53
2022/08/11 02:30:35;;;;;;;15.45;11.68;;;17.80;99.90;;;;;;5063539;28;20056;-53
2022/08/11 02:33:24;;;;;;;12.90;10.20;;;17.70;99.90;;;;;;5063363;28;20045;-52
2022/08/11 02:36:23;;;;;;;16.45;11.25;;;17.60;99.90;;;;;;5064060;28;20044;-54
2022/08/11 02:39:02;;;;;;;14.07;11.10;;;17.60;99.90;;;;;;5063591;28;20046;-54
2022/08/11 02:44:35;;;;;;;13.20;11.18;;;17.50;99.90;;;;;;5064079;28;20054;-53
2022/08/11 02:47:41;;;;;;;15.65;11.45;;;17.50;99.90;;;;;;5062665;28;20491;-53
2022/08/11 02:50:22;;;;;;;15.13;12.05;;;17.60;99.90;;;;;;5063679;28;20052;-54
2022/08/11 02:53:08;;;;;;;13.95;11.98;;;17.60;99.90;;;;;;5063741;28;20044;-54
2022/08/11 02:55:56;;;;;;;15.10;11.65;;;17.40;99.90;;;;;;5063783;28;20637;-54
2022/08/11 02:58:29;;;;;;;14.57;12.45;;;17.40;99.90;;;;;;5063560;28;20095;-54
2022/08/11 03:01:20;;;;;;;17.83;12.05;;;17.40;99.90;;;;;;5062490;28;20052;-56
2022/08/11 03:04:12;;;;;;;14.52;12.10;;;17.40;99.90;;;;;;5063453;28;20453;-54
2022/08/11 03:06:44;;;;;;;14.40;12.65;;;17.20;99.90;;;;;;5068411;28;20048;-53
2022/08/11 03:09:21;;;;;;;14.52;11.85;;;17.10;99.90;;;;;;5078466;28;20398;-54
2022/08/11 03:18:30;;;;;;;16.08;12.65;;;17.20;99.90;;;;;;5083253;28;20095;-54
2022/08/11 03:21:19;;;;;;;16.38;13.25;;;17.10;99.90;;;;;;5083213;28;20405;-52
2022/08/11 03:24:03;;;;;;;17.90;13.25;;;17.00;99.90;;;;;;5083379;28;20051;-53
2022/08/11 03:26:54;;;;;;;16.13;13.10;;;16.90;99.90;;;;;;5083129;28;20040;-53
2022/08/11 03:29:32;;;;;;;17.42;14.35;;;16.90;99.90;;;;;;5082796;28;20039;-52
2022/08/11 03:32:05;;;;;;;15.23;13.63;;;16.80;99.90;;;;;;5082891;28;20044;-54
2022/08/11 03:34:36;;;;;;;15.60;13.70;;;16.80;99.90;;;;;;5083253;28;20087;-53
2022/08/11 03:37:50;;;;;;;18.60;13.65;;;16.70;99.90;;;;;;5081824;28;20044;-54
2022/08/11 03:44:02;;;;;;;15.38;13.82;;;16.70;99.90;;;;;;5081034;28;20083;-53
2022/08/11 03:47:11;;;;;;;19.45;14.38;;;16.70;99.90;;;;;;5082428;28;20044;-53
2022/08/11 03:49:49;;;;;;;18.80;13.48;;;16.70;99.90;;;;;;5083124;28;20529;-54
2022/08/11 03:52:39;;;;;;;17.27;14.63;;;16.70;99.90;;;;;;5081729;28;20123;-52
2022/08/11 03:55:23;;;;;;;18.70;14.77;;;16.80;99.90;;;;;;5083378;28;20092;-54
2022/08/11 03:58:30;;;;;;;15.00;13.20;;;16.60;99.90;;;;;;5083115;28;20051;-54
2022/08/11 04:01:48;;;;;;;17.25;14.32;;;16.90;99.90;;;;;;5082522;28;20055;-54
2022/08/11 04:04:28;;;;;;;17.13;14.50;;;16.90;99.90;;;;;;5082786;28;20376;-52
2022/08/11 04:07:15;;;;;;;17.50;13.77;;;16.90;99.90;;;;;;5074014;28;20733;-53
2022/08/11 04:10:21;;;;;;;16.38;13.82;;;16.80;99.90;;;;;;5082036;28;20091;-53
2022/08/11 04:13:14;;;;;;;16.45;14.07;;;16.80;99.90;;;;;;5082945;28;20716;-52
2022/08/11 04:16:01;;;;;;;17.15;13.93;;;16.70;99.90;;;;;;5081937;28;20040;-52
2022/08/11 04:19:01;;;;;;;18.50;15.10;;;16.70;99.90;;;;;;5083452;28;20093;-52
2022/08/11 04:22:11;;;;;;;17.20;13.52;;;16.70;99.90;;;;;;5084908;28;20099;-54
2022/08/11 04:25:06;;;;;;;16.33;12.65;;;16.60;99.90;;;;;;5043335;28;20125;-59
2022/08/11 04:27:50;;;;;;;18.25;15.07;;;16.50;99.90;;;;;;5043148;28;20060;-53
2022/08/11 04:30:40;;;;;;;17.88;14.55;;;16.60;99.90;;;;;;5079413;28;20136;-54
2022/08/11 04:33:30;;;;;;;16.58;13.43;;;16.60;99.90;;;;;;5086205;28;20050;-53
2022/08/11 04:36:14;;;;;;;16.73;14.15;;;16.70;99.90;;;;;;5086252;28;20084;-53
2022/08/11 04:39:18;;;;;;;16.10;13.77;;;16.70;99.90;;;;;;5086287;28;20044;-53
2022/08/11 04:45:01;;;;;;;15.75;12.75;;;16.90;99.90;;;;;;5086459;28;20040;-53
2022/08/11 05:03:00;;;;;;;13.32;11.82;;;17.20;99.90;;;;;;5084967;28;20064;-54
2022/08/11 05:05:53;;;;;;;15.93;11.32;;;17.80;99.90;;;;;;5084296;28;20047;-53
2022/08/11 05:08:37;;;;;;;11.45;10.30;;;18.50;99.90;;;;;;5076492;28;20048;-53
2022/08/11 05:11:18;;;;;;;12.13;10.83;;;19.20;99.90;;;;;;5086170;28;20192;-54
2022/08/11 05:36:44;;;;;;;10.05;7.75;;;21.60;99.90;;;;;;5084855;28;20127;-54
2022/08/11 05:58:43;;;;;;;11.90;6.88;;;22.50;99.90;;;;;;5084120;28;20087;-55
2022/08/11 06:01:19;;;;;;;8.88;6.20;;;22.70;99.90;;;;;;5084250;28;20040;-54
2022/08/11 06:06:33;;;;;;;9.15;6.90;;;23.00;99.90;;;;;;5079214;28;20412;-54
2022/08/11 06:09:00;;;;;;;9.27;6.28;;;22.80;99.90;;;;;;5077820;28;20130;-54
2022/08/11 06:11:28;;;;;;;8.20;6.40;;;23.00;99.90;;;;;;5084214;28;20384;-54
2022/08/11 06:13:55;;;;;;;9.63;6.38;;;23.10;99.90;;;;;;5084921;28;20040;-53
2022/08/11 06:16:24;;;;;;;8.55;6.05;;;23.20;99.90;;;;;;5083491;28;20593;-53
2022/08/11 06:18:51;;;;;;;8.05;5.75;;;23.40;99.90;;;;;;5084657;28;20051;-54
2022/08/11 06:21:17;;;;;;;9.43;5.53;;;23.40;99.90;;;;;;5084291;28;20466;-57
2022/08/11 06:23:43;;;;;;;7.07;5.38;;;23.60;99.90;;;;;;5084347;28;20055;-52
2022/08/11 06:26:12;;;;;;;7.53;5.40;;;23.90;99.90;;;;;;5083882;28;20083;-54
2022/08/11 06:28:43;;;;;;;9.00;5.50;;;23.90;99.90;;;;;;5084387;28;20050;-52
2022/08/11 06:31:17;;;;;;;9.73;5.57;;;23.90;99.90;;;;;;5083659;28;20058;-55
2022/08/11 06:33:45;;;;;;;9.43;5.50;;;23.90;99.90;;;;;;5083885;28;20043;-54
2022/08/11 06:36:26;;;;;;;8.25;5.82;;;24.10;99.90;;;;;;5083859;28;20636;-53
2022/08/11 06:38:58;;;;;;;9.43;5.50;;;24.10;99.90;;;;;;5083886;28;20129;-52
2022/08/11 06:41:43;;;;;;;7.13;5.50;;;24.30;99.90;;;;;;5082937;28;20048;-53
2022/08/11 06:44:11;;;;;;;10.63;5.53;;;24.50;99.90;;;;;;5083680;28;20062;-53
2022/08/11 06:46:39;;;;;;;7.88;4.93;;;24.70;99.90;;;;;;5081579;28;20397;-49
2022/08/11 06:52:01;;;;;;;10.52;5.22;;;25.10;99.90;;;;;;5083535;28;20099;-50
2022/08/11 06:54:43;;;;;;;7.07;5.05;;;24.60;99.90;;;;;;5083823;28;20496;-54
2022/08/11 07:02:53;;;;;;;7.70;5.00;;;25.30;99.90;;;;;;5083327;28;20051;-53
2022/08/11 07:05:45;;;;;;;8.40;5.50;;;25.10;99.90;;;;;;5083015;28;20047;-53
2022/08/11 07:17:33;;;;;;;7.88;4.60;;;25.90;99.90;;;;;;5061909;28;20257;-52
2022/08/11 07:31:49;;;;;;;6.93;4.10;;;26.70;99.90;;;;;;5062626;28;20044;-51
2022/08/11 07:34:26;;;;;;;6.32;3.17;;;26.70;99.90;;;;;;5054070;28;20065;-53
2022/08/11 07:36:58;;;;;;;4.35;2.97;;;26.70;99.90;;;;;;5078867;28;20048;-54
2022/08/11 07:39:26;;;;;;;8.88;3.53;;;26.80;99.90;;;;;;5061826;28;20487;-53
2022/08/11 07:41:53;;;;;;;5.82;3.70;;;26.70;99.90;;;;;;5062145;28;20072;-51
2022/08/11 07:44:24;;;;;;;5.55;3.30;;;26.60;99.90;;;;;;5063176;28;20109;-54
2022/08/11 07:52:29;;;;;;;7.38;3.47;;;26.60;99.90;;;;;;5063941;28;20051;-54
2022/08/11 07:55:01;;;;;;;9.23;3.53;;;26.90;99.90;;;;;;5067602;28;20055;-52
2022/08/11 08:19:31;;;;;;;8.93;2.40;;;27.50;99.90;;;;;;5061855;28;20415;-54
2022/08/11 08:21:57;;;;;;;5.40;1.90;;;27.60;99.90;;;;;;5062618;28;20059;-54
2022/08/11 08:24:24;;;;;;;6.38;1.73;;;27.80;99.90;;;;;;5064735;28;20055;-53
2022/08/11 08:26:59;;;;;;;3.85;1.80;;;28.00;99.90;;;;;;5065645;28;20044;-53
2022/08/11 08:32:20;;;;;;;6.10;2.15;;;28.00;99.90;;;;;;5066764;28;20044;-53
2022/08/11 08:34:50;;;;;;;5.05;1.92;;;28.10;99.90;;;;;;5066120;28;20052;-53
2022/08/11 08:37:20;;;;;;;7.22;1.88;;;28.30;99.90;;;;;;5066840;28;20040;-53
2022/08/11 08:39:47;;;;;;;5.63;1.55;;;28.50;99.90;;;;;;5066808;28;20141;-53
2022/08/11 08:42:18;;;;;;;6.18;2.20;;;28.40;99.90;;;;;;5066471;28;20109;-52
2022/08/11 08:44:50;;;;;;;6.30;2.10;;;28.10;99.90;;;;;;5066244;28;20543;-56
2022/08/11 08:47:17;;;;;;;5.38;1.77;;;28.40;99.90;;;;;;5066333;28;20093;-54
2022/08/11 08:49:49;;;;;;;5.78;1.80;;;28.50;99.90;;;;;;5065279;28;20479;-52
2022/08/11 08:52:21;;;;;;;3.80;1.80;;;28.60;99.90;;;;;;5066146;28;20095;-55
2022/08/11 08:54:56;;;;;;;3.65;1.63;;;28.50;99.90;;;;;;5066511;28;20053;-56
2022/08/11 08:57:26;;;;;;;8.18;2.10;;;28.50;99.90;;;;;;5066129;28;20040;-46
2022/08/11 08:59:52;;;;;;;2.60;1.83;;;28.80;99.90;;;;;;5064850;28;20067;-59
2022/08/11 09:02:23;;;;;;;7.07;1.63;;;28.90;99.90;;;;;;5065901;28;20124;-60
2022/08/11 09:04:49;;;;;;;4.00;1.70;;;28.80;99.90;;;;;;5065520;28;20072;-58
2022/08/11 09:07:17;;;;;;;4.10;1.65;;;28.90;99.90;;;;;;5066690;28;20081;-59
2022/08/11 09:09:46;;;;;;;2.75;1.60;;;29.00;99.90;;;;;;5084864;28;20071;-56
2022/08/11 09:12:12;;;;;;;4.93;1.73;;;29.00;99.90;;;;;;5086061;28;20418;-56
2022/08/11 09:14:59;;;;;;;7.03;1.90;;;29.00;99.90;;;;;;5085052;28;20063;-58
2022/08/11 09:17:26;;;;;;;4.32;1.60;;;29.30;99.90;;;;;;5083927;28;20044;-56
2022/08/11 09:20:18;;;;;;;2.70;1.45;;;29.30;99.90;;;;;;5085690;28;20056;-56
2022/08/11 09:28:20;;;;;;;3.17;1.40;;;29.20;99.90;;;;;;5085034;28;20127;-57
2022/08/11 09:30:53;;;;;;;5.03;1.27;;;29.50;99.90;;;;;;5083240;28;20048;-58
2022/08/11 09:33:20;;;;;;;5.30;1.80;;;29.60;99.90;;;;;;5084975;28;20044;-58
2022/08/11 09:35:50;;;;;;;3.08;1.40;;;30.10;99.90;;;;;;5085050;28;20814;-58
2022/08/11 09:41:05;;;;;;;4.40;1.42;;;30.10;99.90;;;;;;5085120;28;20052;-57
2022/08/11 09:46:23;;;;;;;3.58;1.58;;;30.40;99.90;;;;;;5083666;28;20060;-57
2022/08/11 09:48:49;;;;;;;3.15;1.50;;;30.40;99.90;;;;;;5084628;28;20040;-56
2022/08/11 09:51:16;;;;;;;4.13;1.30;;;30.70;99.90;;;;;;5084058;28;20403;-58
2022/08/11 09:53:43;;;;;;;2.25;1.23;;;30.80;99.90;;;;;;5084643;28;20079;-58
2022/08/11 09:58:58;;;;;;;2.45;1.20;;;30.50;99.90;;;;;;5071478;28;20076;-60
2022/08/11 10:01:29;;;;;;;3.92;1.42;;;30.70;99.90;;;;;;5063305;28;20441;-55
2022/08/11 10:04:04;;;;;;;5.90;1.50;;;30.90;99.90;;;;;;5064356;28;20071;-54
2022/08/11 10:09:20;;;;;;;2.33;1.20;;;31.20;99.90;;;;;;5079658;28;20455;-55
2022/08/11 10:11:47;;;;;;;2.95;1.63;;;31.40;99.90;;;;;;5084140;28;20036;-53
2022/08/11 10:17:07;;;;;;;4.65;1.60;;;31.70;99.90;;;;;;5084089;28;20052;-55
2022/08/11 10:19:37;;;;;;;3.15;1.42;;;31.60;98.80;;;;;;5083155;28;20101;-56
2022/08/11 10:27:36;;;;;;;4.15;1.40;;;31.80;99.80;;;;;;5084511;28;20052;-55
2022/08/11 10:35:50;;;;;;;4.60;1.60;;;31.40;98.80;;;;;;5020985;28;19925;-55
2022/08/11 10:38:17;;;;;;;6.40;1.60;;;31.20;99.00;;;;;;5057663;28;20051;-61
2022/08/11 10:43:01;;;;;;;2.53;1.42;;;31.60;99.10;;;;;;5082154;28;20082;-56
2022/08/11 10:43:31;;;;;;;5.10;1.73;;;31.70;98.70;;;;;;5083385;28;20056;-56
2022/08/11 10:48:42;;;;;;;7.50;1.63;;;32.30;99.00;;;;;;5083771;28;20457;-56
2022/08/11 10:51:14;;;;;;;2.83;1.27;;;32.40;98.90;;;;;;5083319;28;20113;-56
2022/08/11 10:59:29;;;;;;;4.38;1.52;;;31.80;97.60;;;;;;5082357;28;20048;-53
2022/08/11 11:01:57;;;;;;;3.05;1.50;;;31.90;98.20;;;;;;5082113;28;20399;-55
2022/08/11 11:04:32;;;;;;;3.63;1.50;;;32.20;98.70;;;;;;5082725;28;20055;-54
2022/08/11 11:07:00;;;;;;;5.68;1.60;;;32.20;98.40;;;;;;5074033;28;20118;-55
2022/08/11 11:09:31;;;;;;;3.05;1.60;;;32.40;98.70;;;;;;5080132;28;20407;-55
2022/08/11 11:18:03;;;;;;;5.65;1.30;;;32.30;98.20;;;;;;5082585;28;20048;-52
2022/08/11 11:20:43;;;;;;;7.45;1.60;;;32.70;97.80;;;;;;5082424;28;20135;-57
2022/08/11 11:23:15;;;;;;;3.35;1.35;;;32.50;97.00;;;;;;5081726;28;20040;-57
2022/08/11 11:26:05;;;;;;;5.60;1.40;;;32.60;97.70;;;;;;5082794;28;20048;-57
2022/08/11 11:28:49;;;;;;;5.10;1.50;;;32.40;97.70;;;;;;5082410;28;20071;-57
2022/08/11 11:31:37;;;;;;;2.28;1.35;;;32.40;97.20;;;;;;5081891;28;20553;-56
2022/08/11 11:34:25;;;;;;;3.38;1.30;;;32.40;96.90;;;;;;5082202;28;20044;-57
2022/08/11 11:36:55;;;;;;;4.97;1.67;;;32.40;96.50;;;;;;5081855;28;20042;-57
2022/08/11 11:39:24;;;;;;;4.13;1.45;;;32.40;97.20;;;;;;5082781;28;20048;-57
2022/08/11 11:41:54;;;;;;;4.75;1.40;;;32.80;97.60;;;;;;5082607;28;20050;-57
2022/08/11 11:44:24;;;;;;;4.13;1.40;;;33.00;97.60;;;;;;5081923;28;20047;-57
2022/08/11 11:46:50;;;;;;;2.63;1.30;;;32.90;97.00;;;;;;5082695;28;20406;-57
2022/08/11 11:49:19;;;;;;;2.72;1.30;;;31.70;95.00;;;;;;5082788;28;20048;-57
2022/08/11 11:51:51;;;;;;;3.65;1.50;;;31.80;96.30;;;;;;5082444;28;20048;-57
2022/08/11 11:54:22;;;;;;;3.33;1.35;;;32.00;96.50;;;;;;5081000;28;20048;-59
2022/08/11 11:56:52;;;;;;;4.43;1.70;;;32.20;97.30;;;;;;5082527;28;20052;-57
2022/08/11 12:02:06;;;;;;;4.57;1.67;;;31.90;97.00;;;;;;5082907;28;20510;-57
2022/08/11 12:04:32;;;;;;;1.83;1.33;;;31.90;96.70;;;;;;5081380;28;20055;-57
2022/08/11 12:09:46;;;;;;;5.95;1.35;;;32.40;96.70;;;;;;5062602;28;20529;-59
2022/08/11 12:14:57;;;;;;;2.95;1.60;;;32.40;96.10;;;;;;5062042;28;20245;-57
2022/08/11 12:17:24;;;;;;;3.58;1.35;;;32.40;96.40;;;;;;5060188;28;20057;-57
2022/08/11 12:19:50;;;;;;;3.45;1.52;;;32.30;97.20;;;;;;5062380;28;20037;-57
2022/08/11 12:27:46;;;;;;;2.33;1.40;;;32.30;96.10;;;;;;5062335;28;20048;-60
2022/08/11 12:30:12;;;;;;;5.97;1.40;;;32.20;96.40;;;;;;5061974;28;20552;-57
2022/08/11 12:32:39;;;;;;;2.45;1.27;;;32.40;96.80;;;;;;5061477;28;20076;-57
2022/08/11 12:35:06;;;;;;;2.28;1.30;;;32.40;96.70;;;;;;5062877;28;20099;-57
2022/08/11 12:37:43;;;;;;;2.20;1.50;;;32.20;96.80;;;;;;5062645;28;20432;-56
2022/08/11 12:45:51;;;;;;;2.60;1.40;;;32.60;96.90;;;;;;5064989;28;20040;-57
2022/08/11 12:54:07;;;;;;;5.28;1.38;;;32.40;96.90;;;;;;5065880;28;20047;-57
2022/08/11 13:05:05;;;;;;;2.45;1.23;;;32.30;96.30;;;;;;5051916;28;20041;-57
2022/08/11 13:07:32;;;;;;;2.95;1.40;;;32.60;95.90;;;;;;5041525;28;20059;-57
2022/08/11 13:10:05;;;;;;;3.25;1.50;;;32.60;96.40;;;;;;5036780;28;20049;-58
2022/08/11 13:12:46;;;;;;;2.20;1.10;;;32.70;96.00;;;;;;5039459;28;20087;-61
2022/08/11 13:15:15;;;;;;;2.70;1.48;;;32.70;96.30;;;;;;5038891;28;20578;-58
2022/08/11 13:17:42;;;;;;;3.67;1.30;;;32.80;96.00;;;;;;5038837;28;20041;-58
2022/08/11 13:20:11;;;;;;;1.92;1.20;;;32.60;96.30;;;;;;5039881;28;20128;-58
2022/08/11 13:22:39;;;;;;;3.45;1.08;;;32.70;96.20;;;;;;5037739;28;20056;-58
2022/08/11 13:25:06;;;;;;;4.07;1.58;;;32.60;95.90;;;;;;5039913;28;20040;-58
2022/08/11 13:27:33;;;;;;;2.90;1.50;;;32.70;96.80;;;;;;5039844;28;20463;-57
2022/08/11 13:32:45;;;;;;;6.45;1.63;;;32.50;96.70;;;;;;5039265;28;20064;-57
2022/08/11 13:35:15;;;;;;;2.05;1.10;;;32.40;96.90;;;;;;5039151;28;20404;-57
2022/08/11 13:37:44;;;;;;;5.55;1.35;;;32.60;97.10;;;;;;5039732;28;20490;-58
2022/08/11 13:40:11;;;;;;;3.05;1.10;;;32.70;96.40;;;;;;5038760;28;20036;-58
2022/08/11 13:42:38;;;;;;;2.42;1.40;;;32.60;96.90;;;;;;5037041;28;20052;-57
2022/08/11 13:45:06;;;;;;;3.33;1.65;;;32.60;97.00;;;;;;5038892;28;20403;-57
2022/08/11 13:47:33;;;;;;;3.13;1.30;;;32.60;97.30;;;;;;5038583;28;20651;-54
2022/08/11 13:49:59;;;;;;;4.25;1.30;;;32.10;97.40;;;;;;5037690;28;20041;-57
2022/08/11 13:52:26;;;;;;;5.18;1.50;;;32.20;98.00;;;;;;5039882;28;20033;-58
2022/08/11 13:54:53;;;;;;;2.50;1.30;;;32.30;97.80;;;;;;5039777;28;20112;-57
2022/08/11 13:57:20;;;;;;;3.60;1.40;;;32.10;97.80;;;;;;5039209;28;20399;-58
2022/08/11 13:59:53;;;;;;;4.22;1.20;;;32.10;97.50;;;;;;5038614;28;20037;-57
2022/08/11 14:02:24;;;;;;;5.80;1.50;;;32.10;97.80;;;;;;5039344;28;20044;-58
2022/08/11 14:04:57;;;;;;;4.15;1.60;;;32.20;97.60;;;;;;5039207;28;20121;-57
2022/08/11 14:07:33;;;;;;;2.67;1.40;;;32.20;97.30;;;;;;5038747;28;20053;-58
2022/08/11 14:09:59;;;;;;;2.63;1.30;;;32.10;97.50;;;;;;5039254;28;20061;-57
2022/08/11 14:15:23;;;;;;;3.67;1.38;;;32.10;98.20;;;;;;5038099;28;20049;-60
2022/08/11 14:18:17;;;;;;;8.70;1.58;;;32.00;98.50;;;;;;5039007;28;20044;-57
2022/08/11 14:23:38;;;;;;;3.03;1.70;;;32.10;98.70;;;;;;5038945;28;20071;-58
2022/08/11 14:26:25;;;;;;;3.75;1.60;;;32.00;98.90;;;;;;5039562;28;20148;-57
2022/08/11 14:29:01;;;;;;;4.63;1.50;;;31.80;98.10;;;;;;5037596;28;20045;-58
2022/08/11 14:31:29;;;;;;;10.43;1.70;;;31.90;97.90;;;;;;5037337;28;20478;-57
2022/08/11 14:33:58;;;;;;;7.43;1.48;;;31.80;98.00;;;;;;5038992;28;20045;-61
2022/08/11 14:36:25;;;;;;;4.75;1.30;;;32.10;98.00;;;;;;5037930;28;20053;-59
2022/08/11 14:38:52;;;;;;;4.38;1.52;;;32.10;98.20;;;;;;5038774;28;20049;-59
2022/08/11 14:47:06;;;;;;;3.72;1.42;;;32.40;98.10;;;;;;5038113;28;20411;-59
2022/08/11 14:49:36;;;;;;;24.45;1.88;;;32.20;98.10;;;;;;5036953;28;20044;-59
2022/08/11 14:52:07;;;;;;;4.22;1.63;;;32.20;98.00;;;;;;5038299;28;20097;-59
2022/08/11 14:57:20;;;;;;;2.10;1.38;;;32.20;98.10;;;;;;5037848;28;20491;-59
2022/08/11 14:59:48;;;;;;;2.80;1.60;;;32.40;98.00;;;;;;5031312;28;20116;-59
2022/08/11 15:05:01;;;;;;;1.90;1.40;;;32.50;98.00;;;;;;5038354;28;20144;-59
2022/08/11 15:07:30;;;;;;;3.75;1.67;;;32.10;98.00;;;;;;5037522;28;20124;-59
2022/08/11 15:10:02;;;;;;;3.45;1.45;;;32.00;99.00;;;;;;5037087;28;20063;-59
2022/08/11 15:12:28;;;;;;;3.83;1.50;;;31.90;98.50;;;;;;5037949;28;20052;-59
2022/08/11 15:17:40;;;;;;;5.80;1.48;;;31.90;98.50;;;;;;5037247;28;20206;-59
2022/08/11 15:25:44;;;;;;;2.55;1.60;;;31.40;98.00;;;;;;5037734;28;20041;-59
2022/08/11 15:48:13;;;;;;;4.82;1.60;;;31.50;99.00;;;;;;5036573;28;20045;-59
2022/08/11 15:50:44;;;;;;;3.90;2.10;;;31.50;99.10;;;;;;5037305;28;20045;-59
2022/08/11 15:53:31;;;;;;;6.28;2.30;;;31.40;99.10;;;;;;5036775;28;20041;-60
2022/08/11 15:55:58;;;;;;;3.90;1.98;;;31.40;99.20;;;;;;5036830;28;20127;-59
2022/08/11 16:04:15;;;;;;;4.18;1.63;;;31.10;97.80;;;;;;5035274;28;20041;-59
2022/08/11 16:06:51;;;;;;;4.80;1.48;;;31.30;98.60;;;;;;5035636;28;20045;-59
2022/08/11 16:09:25;;;;;;;4.43;1.60;;;31.30;98.40;;;;;;5034734;28;20130;-60
2022/08/11 16:11:52;;;;;;;2.83;1.58;;;31.10;98.20;;;;;;5035598;28;20103;-59
2022/08/11 16:17:05;;;;;;;3.55;1.83;;;31.00;98.60;;;;;;5039765;28;20140;-60
2022/08/11 16:19:35;;;;;;;2.53;1.40;;;30.90;98.90;;;;;;5039511;28;20045;-59
2022/08/11 16:22:06;;;;;;;4.70;1.42;;;30.90;99.00;;;;;;5040192;28;20434;-59
2022/08/11 16:24:33;;;;;;;5.75;1.60;;;30.80;99.00;;;;;;5029775;28;20103;-58
2022/08/11 16:27:01;;;;;;;4.38;1.52;;;30.70;99.00;;;;;;5039655;28;20527;-60
2022/08/11 16:29:30;;;;;;;5.88;2.08;;;30.90;98.80;;;;;;5037972;28;20091;-59
2022/08/11 16:40:24;;;;;;;4.80;1.95;;;30.40;99.40;;;;;;5039271;28;20523;-60
2022/08/11 16:48:23;;;;;;;5.05;1.98;;;30.20;99.30;;;;;;5038079;28;20055;-59
2022/08/11 16:50:49;;;;;;;3.75;1.95;;;30.10;99.10;;;;;;5039704;28;20049;-59
2022/08/11 16:53:18;;;;;;;3.72;2.30;;;30.00;99.10;;;;;;5039559;28;20052;-59
2022/08/11 16:55:47;;;;;;;3.88;2.00;;;30.00;99.20;;;;;;5039770;28;20055;-59
2022/08/11 17:01:00;;;;;;;2.42;1.77;;;29.90;98.90;;;;;;5038184;28;20702;-59
2022/08/11 17:14:47;;;;;;;4.85;1.80;;;29.60;99.90;;;;;;5038087;28;20135;-59
2022/08/11 17:17:17;;;;;;;4.57;1.90;;;29.50;99.90;;;;;;5037505;28;20079;-59
2022/08/11 17:19:52;;;;;;;4.40;2.10;;;29.50;99.90;;;;;;5038196;28;20474;-59
2022/08/11 17:25:05;;;;;;;4.63;2.35;;;29.30;99.90;;;;;;5038125;28;20047;-59
2022/08/11 17:27:32;;;;;;;3.30;2.25;;;29.10;99.90;;;;;;5037475;28;20136;-59
2022/08/11 17:30:03;;;;;;;5.28;2.00;;;29.00;99.90;;;;;;5036782;28;20059;-60
2022/08/11 17:35:31;;;;;;;7.68;2.22;;;29.00;99.90;;;;;;5037391;28;20132;-61
2022/08/11 17:38:11;;;;;;;4.43;1.98;;;29.00;99.90;;;;;;5039208;28;20064;-59
2022/08/11 17:48:23;;;;;;;4.43;1.73;;;28.90;99.90;;;;;;5038926;28;20056;-60
2022/08/11 17:48:58;;;;;;;4.40;2.08;;;28.70;99.90;;;;;;5038570;28;20044;-59
2022/08/11 17:59:51;;;;;;;7.03;2.10;;;29.20;99.90;;;;;;5037056;28;20183;-59
2022/08/11 18:05:27;;;;;;;5.50;1.77;;;28.80;99.90;;;;;;5037468;28;20128;-58
